createdAt,value
2022-08-16T00:01:11.100Z,90.44
2022-08-16T00:03:40.846Z,88.13
2022-08-16T00:06:10.079Z,88.48
2022-08-16T00:08:38.238Z,89.58
2022-08-16T00:11:08.331Z,92.03
2022-08-16T00:13:53.129Z,89.59
2022-08-16T00:17:00.880Z,89.03
2022-08-16T00:19:23.490Z,90.12
2022-08-16T00:21:54.444Z,93.09
2022-08-16T00:24:31.275Z,91.39
2022-08-16T00:27:01.773Z,92.27
2022-08-16T00:29:30.214Z,92.42
2022-08-16T00:32:18.283Z,92.00
2022-08-16T00:34:54.225Z,92.52
2022-08-16T00:37:24.130Z,93.23
2022-08-16T00:39:57.107Z,92.98
2022-08-16T00:42:31.740Z,93.29
2022-08-16T00:45:09.447Z,93.93
2022-08-16T00:47:39.501Z,93.66
2022-08-16T00:50:08.197Z,93.67
2022-08-16T00:52:45.729Z,94.44
2022-08-16T00:55:20.353Z,92.54
2022-08-16T00:57:58.346Z,92.09
2022-08-16T01:00:29.091Z,92.00
2022-08-16T01:02:57.864Z,91.58
2022-08-16T01:05:25.829Z,91.07
2022-08-16T01:07:54.563Z,90.23
2022-08-16T01:10:32.436Z,91.21
2022-08-16T01:13:15.071Z,89.90
2022-08-16T01:15:56.605Z,89.74
2022-08-16T01:18:39.880Z,90.04
2022-08-16T01:21:22.833Z,91.26
2022-08-16T01:24:51.665Z,92.17
2022-08-16T01:27:09.497Z,93.36
2022-08-16T01:29:56.847Z,92.97
2022-08-16T01:32:33.786Z,92.51
2022-08-16T01:35:17.009Z,93.75
2022-08-16T01:37:53.075Z,94.67
2022-08-16T01:40:29.513Z,95.60
2022-08-16T01:42:57.731Z,95.11
2022-08-16T01:45:39.832Z,95.72
2022-08-16T01:48:19.225Z,95.26
2022-08-16T01:51:09.333Z,95.25
2022-08-16T01:53:36.560Z,95.27
2022-08-16T01:56:25.416Z,95.06
2022-08-16T01:58:56.147Z,95.40
2022-08-16T02:01:26.058Z,95.01
2022-08-16T02:03:58.397Z,96.74
2022-08-16T02:06:34.530Z,96.42
2022-08-16T02:09:11.645Z,95.13
2022-08-16T02:11:48.890Z,95.68
2022-08-16T02:14:26.366Z,95.53
2022-08-16T02:16:57.187Z,96.90
2022-08-16T02:19:58.765Z,96.76
2022-08-16T02:22:46.643Z,98.53
2022-08-16T02:25:11.661Z,98.80
2022-08-16T02:27:44.022Z,97.83
2022-08-16T02:30:36.897Z,97.72
2022-08-16T02:33:04.504Z,98.10
2022-08-16T02:35:33.753Z,97.13
2022-08-16T02:38:08.646Z,97.20
2022-08-16T02:40:38.089Z,96.92
2022-08-16T02:43:07.101Z,96.74
2022-08-16T02:45:36.176Z,97.36
2022-08-16T02:48:29.370Z,98.33
2022-08-16T02:51:06.611Z,97.84
2022-08-16T02:53:45.419Z,97.77
2022-08-16T02:56:15.925Z,97.15
2022-08-16T02:58:45.410Z,97.27
2022-08-16T03:01:25.324Z,97.82
2022-08-16T03:04:29.911Z,98.05
2022-08-16T03:06:56.473Z,98.09
2022-08-16T03:09:44.238Z,98.73
2022-08-16T03:12:16.378Z,97.74
2022-08-16T03:14:46.840Z,97.81
2022-08-16T03:17:16.602Z,97.82
2022-08-16T03:19:48.715Z,98.64
2022-08-16T03:22:31.755Z,98.82
2022-08-16T03:25:07.332Z,98.95
2022-08-16T03:27:39.215Z,100.00
2022-08-16T03:30:19.812Z,99.35
2022-08-16T03:32:54.213Z,99.47
2022-08-16T03:35:32.981Z,99.07
2022-08-16T03:38:33.133Z,99.80
2022-08-16T03:40:54.423Z,99.65
2022-08-16T03:43:24.545Z,99.70
2022-08-16T03:46:44.389Z,100.00
2022-08-16T03:49:04.333Z,100.00
2022-08-16T03:51:32.259Z,100.00
2022-08-16T03:54:04.884Z,100.00
2022-08-16T03:56:57.068Z,100.00
2022-08-16T03:59:29.344Z,100.00
2022-08-16T04:02:00.840Z,100.00
2022-08-16T04:04:33.024Z,100.00
2022-08-16T04:07:05.817Z,100.00
2022-08-16T04:09:38.273Z,100.00
2022-08-16T04:12:10.781Z,100.00
2022-08-16T04:14:58.326Z,100.00
2022-08-16T04:17:27.543Z,100.00
2022-08-16T04:19:58.276Z,100.00
2022-08-16T04:22:27.575Z,100.00
2022-08-16T04:25:00.132Z,100.00
2022-08-16T04:27:34.510Z,100.00
2022-08-16T04:30:04.268Z,100.00
2022-08-16T04:32:41.943Z,100.00
2022-08-16T04:35:16.403Z,100.00
2022-08-16T04:37:46.167Z,100.00
2022-08-16T04:40:22.066Z,99.67
2022-08-16T04:42:54.979Z,99.37
2022-08-16T04:45:36.155Z,99.36
2022-08-16T04:48:12.569Z,99.92
2022-08-16T04:50:59.485Z,99.43
2022-08-16T04:53:39.581Z,98.42
2022-08-16T04:56:11.305Z,97.33
2022-08-16T04:58:46.130Z,96.58
2022-08-16T05:01:18.129Z,95.66
2022-08-16T05:04:00.311Z,94.99
2022-08-16T05:06:41.950Z,94.90
2022-08-16T05:09:12.702Z,95.24
2022-08-16T05:11:40.581Z,97.09
2022-08-16T05:14:09.109Z,97.79
2022-08-16T05:16:39.208Z,96.17
2022-08-16T05:19:13.388Z,96.78
2022-08-16T05:22:04.278Z,97.82
2022-08-16T05:24:36.996Z,97.70
2022-08-16T05:27:11.508Z,97.82
2022-08-16T05:29:59.404Z,98.25
2022-08-16T05:32:32.739Z,99.42
2022-08-16T05:35:04.867Z,99.24
2022-08-16T05:37:39.483Z,99.27
2022-08-16T05:40:10.785Z,100.00
2022-08-16T05:42:46.131Z,99.70
2022-08-16T05:45:22.095Z,99.91
2022-08-16T05:47:59.490Z,100.00
2022-08-16T05:50:34.048Z,100.00
2022-08-16T05:53:03.981Z,100.00
2022-08-16T05:55:40.792Z,100.00
2022-08-16T05:58:09.392Z,100.00
2022-08-16T06:00:57.310Z,100.00
2022-08-16T06:03:29.446Z,100.00
2022-08-16T06:06:02.352Z,100.00
2022-08-16T06:08:44.688Z,99.99
2022-08-16T06:11:20.769Z,98.35
2022-08-16T06:13:56.760Z,98.74
2022-08-16T06:16:50.618Z,99.57
2022-08-16T06:19:21.242Z,99.04
2022-08-16T06:22:01.147Z,98.10
2022-08-16T06:24:54.217Z,98.18
2022-08-16T06:27:18.845Z,98.29
2022-08-16T06:29:50.351Z,98.74
2022-08-16T06:32:27.651Z,97.74
2022-08-16T06:35:02.904Z,97.29
2022-08-16T06:37:38.408Z,97.73
2022-08-16T06:40:13.035Z,97.60
2022-08-16T06:42:52.802Z,97.16
2022-08-16T06:45:43.351Z,96.77
2022-08-16T06:48:19.588Z,97.07
2022-08-16T06:51:05.540Z,97.03
2022-08-16T06:53:36.934Z,97.30
2022-08-16T06:56:14.758Z,97.32
2022-08-16T06:59:10.176Z,97.49
2022-08-16T07:01:54.469Z,98.84
2022-08-16T07:04:31.873Z,96.63
2022-08-16T07:07:06.171Z,96.04
2022-08-16T07:09:38.587Z,96.83
2022-08-16T07:12:06.959Z,96.50
2022-08-16T07:14:39.035Z,96.60
2022-08-16T07:17:08.138Z,95.50
2022-08-16T07:20:03.497Z,95.06
2022-08-16T07:22:39.677Z,93.25
2022-08-16T07:25:17.276Z,91.58
2022-08-16T07:27:47.202Z,91.88
2022-08-16T07:30:39.251Z,93.01
2022-08-16T07:33:08.115Z,91.61
2022-08-16T07:35:44.133Z,91.77
2022-08-16T07:38:17.247Z,92.00
2022-08-16T07:41:01.015Z,92.89
2022-08-16T07:43:32.559Z,92.14
2022-08-16T07:46:04.418Z,92.32
2022-08-16T07:48:37.089Z,91.46
2022-08-16T07:51:09.172Z,89.67
2022-08-16T07:53:43.428Z,87.55
2022-08-16T07:56:14.407Z,87.61
2022-08-16T07:58:44.410Z,88.62
2022-08-16T08:01:16.487Z,88.06
2022-08-16T08:03:53.312Z,87.48
2022-08-16T08:06:28.940Z,87.64
2022-08-16T08:09:01.542Z,87.49
2022-08-16T08:11:33.552Z,87.57
2022-08-16T08:14:07.946Z,86.89
2022-08-16T08:16:53.705Z,87.86
2022-08-16T08:19:27.522Z,85.03
2022-08-16T08:21:59.559Z,83.11
2022-08-16T08:25:03.946Z,81.81
2022-08-16T08:27:36.291Z,82.14
2022-08-16T08:30:49.508Z,81.79
2022-08-16T08:32:59.594Z,82.10
2022-08-16T08:35:30.635Z,81.89
2022-08-16T08:38:00.214Z,82.81
2022-08-16T08:40:29.757Z,82.50
2022-08-16T08:43:12.259Z,83.77
2022-08-16T08:45:52.807Z,84.64
2022-08-16T08:48:33.048Z,84.59
2022-08-16T08:51:17.424Z,85.49
2022-08-16T08:53:57.885Z,84.14
2022-08-16T08:56:32.319Z,83.23
2022-08-16T08:59:19.733Z,82.75
2022-08-16T09:01:58.094Z,81.38
2022-08-16T09:04:34.590Z,83.08
2022-08-16T09:07:05.217Z,80.87
2022-08-16T09:09:40.880Z,80.47
2022-08-16T09:12:31.286Z,81.12
2022-08-16T09:15:06.749Z,80.74
2022-08-16T09:17:49.194Z,80.74
2022-08-16T09:20:27.410Z,78.25
2022-08-16T09:22:56.150Z,78.50
2022-08-16T09:25:34.254Z,78.12
2022-08-16T09:28:10.501Z,76.41
2022-08-16T09:30:50.854Z,73.75
2022-08-16T09:33:20.070Z,71.54
2022-08-16T09:35:53.285Z,70.48
2022-08-16T09:38:31.857Z,72.28
2022-08-16T09:41:01.040Z,70.90
2022-08-16T09:43:58.857Z,70.41
2022-08-16T09:46:44.418Z,69.84
2022-08-16T09:49:05.329Z,70.45
2022-08-16T09:51:38.271Z,70.82
2022-08-16T09:54:09.605Z,70.80
2022-08-16T09:56:38.832Z,69.82
2022-08-16T09:59:08.474Z,69.42
2022-08-16T10:01:37.111Z,67.74
2022-08-16T10:04:29.769Z,67.51
2022-08-16T10:09:45.071Z,66.19
2022-08-16T10:12:35.487Z,65.31
2022-08-16T10:15:15.455Z,63.84
2022-08-16T10:18:01.401Z,63.13
2022-08-16T10:20:35.216Z,61.45
2022-08-16T10:23:07.312Z,60.06
2022-08-16T10:27:11.265Z,60.59
2022-08-16T10:28:28.240Z,62.17
2022-08-16T10:30:59.536Z,60.92
2022-08-16T10:33:29.297Z,57.65
2022-08-16T10:36:02.547Z,59.01
2022-08-16T10:38:32.901Z,58.05
2022-08-16T10:41:08.315Z,57.62
2022-08-16T10:43:38.496Z,56.03
2022-08-16T10:46:33.722Z,55.55
2022-08-16T10:48:56.553Z,56.72
2022-08-16T10:51:34.402Z,55.59
2022-08-16T10:54:28.350Z,55.26
2022-08-16T10:56:57.225Z,54.86
2022-08-16T10:59:39.230Z,53.63
2022-08-16T11:02:59.479Z,54.23
2022-08-16T11:05:06.796Z,53.31
2022-08-16T11:07:45.103Z,53.92
2022-08-16T11:11:04.832Z,52.63
2022-08-16T11:16:01.199Z,51.16
2022-08-16T11:19:04.872Z,52.52
2022-08-16T11:21:28.538Z,52.80
2022-08-16T11:23:59.635Z,52.93
2022-08-16T11:26:27.788Z,53.59
2022-08-16T11:29:13.926Z,54.21
2022-08-16T11:31:45.647Z,53.17
2022-08-16T11:34:14.397Z,54.52
2022-08-16T11:36:53.938Z,52.60
2022-08-16T11:39:30.251Z,52.67
2022-08-16T11:41:59.684Z,53.15
2022-08-16T11:44:51.948Z,52.55
2022-08-16T11:47:15.289Z,51.68
2022-08-16T11:49:44.201Z,51.92
2022-08-16T11:52:14.152Z,50.91
2022-08-16T11:54:45.994Z,50.81
2022-08-16T11:57:21.560Z,50.33
2022-08-16T11:59:49.619Z,49.33
2022-08-16T12:02:32.155Z,51.50
2022-08-16T12:05:00.932Z,53.00
2022-08-16T12:07:28.821Z,52.62
2022-08-16T12:09:59.807Z,52.83
2022-08-16T12:12:29.057Z,52.61
2022-08-16T12:14:59.985Z,53.14
2022-08-16T12:17:31.829Z,53.97
2022-08-16T12:20:01.319Z,52.41
2022-08-16T12:22:29.260Z,51.28
2022-08-16T12:24:56.879Z,50.65
2022-08-16T12:27:25.162Z,50.19
2022-08-16T12:29:53.330Z,50.18
2022-08-16T12:32:38.383Z,51.12
2022-08-16T12:35:10.858Z,48.72
2022-08-16T12:37:39.350Z,50.91
2022-08-16T12:40:19.753Z,49.29
2022-08-16T12:42:54.518Z,48.36
2022-08-16T12:45:26.716Z,47.50
2022-08-16T12:48:34.235Z,49.01
2022-08-16T12:51:13.497Z,50.44
2022-08-16T12:53:48.093Z,47.06
2022-08-16T12:56:18.869Z,47.73
2022-08-16T12:58:52.025Z,47.61
2022-08-16T13:01:26.168Z,45.88
2022-08-16T13:04:12.043Z,46.59
2022-08-16T13:06:43.604Z,45.97
2022-08-16T13:09:32.002Z,46.03
2022-08-16T13:12:23.405Z,46.69
2022-08-16T13:14:52.972Z,46.51
2022-08-16T13:17:26.294Z,47.70
2022-08-16T13:20:11.174Z,45.92
2022-08-16T13:22:44.974Z,46.41
2022-08-16T13:25:19.484Z,43.79
2022-08-16T13:28:01.788Z,46.29
2022-08-16T13:30:35.922Z,44.29
2022-08-16T13:33:11.212Z,45.97
2022-08-16T13:35:43.490Z,43.92
2022-08-16T13:38:25.063Z,44.69
2022-08-16T13:40:56.715Z,42.50
2022-08-16T13:43:28.879Z,43.00
2022-08-16T13:46:04.451Z,42.88
2022-08-16T13:48:42.885Z,43.09
2022-08-16T13:51:18.050Z,45.22
2022-08-16T13:53:54.248Z,46.54
2022-08-16T13:56:34.447Z,47.67
2022-08-16T13:59:20.543Z,48.65
2022-08-16T14:01:55.891Z,49.24
2022-08-16T14:04:26.786Z,50.82
2022-08-16T14:06:56.667Z,50.36
2022-08-16T14:09:24.572Z,51.40
2022-08-16T14:11:58.427Z,51.52
2022-08-16T14:14:29.769Z,52.63
2022-08-16T14:17:01.786Z,52.36
2022-08-16T14:19:30.175Z,50.13
2022-08-16T14:22:14.862Z,49.79
2022-08-16T14:24:45.341Z,47.75
2022-08-16T14:27:17.104Z,47.78
2022-08-16T14:29:49.249Z,46.59
2022-08-16T14:32:32.429Z,45.67
2022-08-16T14:35:07.826Z,43.45
2022-08-16T14:37:36.169Z,46.41
2022-08-16T14:40:09.637Z,44.06
2022-08-16T14:42:37.581Z,44.67
2022-08-16T14:45:07.695Z,44.20
2022-08-16T14:47:38.412Z,46.21
2022-08-16T14:50:08.124Z,46.94
2022-08-16T14:52:54.644Z,47.08
2022-08-16T14:55:23.358Z,46.93
2022-08-16T14:57:54.452Z,46.79
2022-08-16T15:00:32.865Z,45.34
2022-08-16T15:03:09.620Z,45.57
2022-08-16T15:05:39.233Z,44.67
2022-08-16T15:08:07.205Z,45.16
2022-08-16T15:10:37.162Z,46.20
2022-08-16T15:13:06.702Z,45.82
2022-08-16T15:15:37.898Z,46.92
2022-08-16T15:18:06.395Z,45.57
2022-08-16T15:20:41.563Z,44.92
2022-08-16T15:23:09.270Z,44.18
2022-08-16T15:25:41.369Z,45.29
2022-08-16T15:28:23.916Z,45.13
2022-08-16T15:31:00.307Z,44.31
2022-08-16T15:33:29.323Z,45.15
2022-08-16T15:35:59.850Z,45.13
2022-08-16T15:38:57.640Z,45.25
2022-08-16T15:41:29.099Z,46.23
2022-08-16T15:44:05.447Z,47.06
2022-08-16T15:46:57.036Z,46.25
2022-08-16T15:49:34.545Z,46.77
2022-08-16T15:52:29.925Z,47.42
2022-08-16T15:55:13.279Z,47.92
2022-08-16T15:57:51.814Z,48.81
2022-08-16T16:00:20.848Z,49.13
2022-08-16T16:02:49.458Z,49.38
2022-08-16T16:05:19.093Z,49.75
2022-08-16T16:07:56.478Z,50.09
2022-08-16T16:10:29.875Z,50.00
2022-08-16T16:13:00.505Z,50.66
2022-08-16T16:15:30.305Z,52.06
2022-08-16T16:17:58.105Z,53.04
2022-08-16T16:20:27.955Z,53.39
2022-08-16T16:23:06.293Z,57.12
2022-08-16T16:25:39.647Z,56.68
2022-08-16T16:28:51.212Z,57.48
2022-08-16T16:31:07.123Z,58.65
2022-08-16T16:33:38.525Z,58.47
2022-08-16T16:36:08.590Z,58.95
2022-08-16T16:38:39.298Z,60.50
2022-08-16T16:41:11.007Z,61.59
2022-08-16T16:43:40.851Z,62.58
2022-08-16T16:46:41.256Z,64.63
2022-08-16T16:48:56.729Z,67.05
2022-08-16T16:51:28.098Z,68.38
2022-08-16T16:53:57.175Z,69.67
2022-08-16T16:56:30.325Z,71.26
2022-08-16T16:59:04.795Z,72.80
2022-08-16T17:01:59.303Z,73.68
2022-08-16T17:04:31.337Z,76.19
2022-08-16T17:07:01.684Z,76.21
2022-08-16T17:09:29.745Z,76.78
2022-08-16T17:11:58.519Z,75.15
2022-08-16T17:17:14.257Z,76.32
2022-08-16T17:19:42.636Z,75.60
2022-08-16T17:22:14.648Z,75.73
2022-08-16T17:24:50.538Z,77.46
2022-08-16T17:27:32.838Z,78.93
2022-08-16T17:30:16.111Z,78.81
2022-08-16T17:32:50.688Z,79.50
2022-08-16T17:35:33.934Z,81.17
2022-08-16T17:38:07.547Z,81.59
2022-08-16T17:39:26.340Z,76.48
2022-08-16T17:40:54.996Z,80.86
2022-08-16T17:43:37.903Z,81.09
2022-08-16T17:46:51.122Z,81.81
2022-08-16T17:49:01.097Z,80.60
2022-08-16T17:51:29.019Z,81.36
2022-08-16T17:53:56.951Z,82.64
2022-08-16T17:56:24.803Z,82.95
2022-08-16T17:58:52.606Z,81.81
2022-08-16T18:01:20.445Z,80.70
2022-08-16T18:04:09.001Z,81.36
2022-08-16T18:06:38.872Z,82.69
2022-08-16T18:09:14.885Z,83.13
2022-08-16T18:11:44.707Z,83.28
2022-08-16T18:14:14.708Z,83.81
2022-08-16T18:16:43.041Z,83.76
2022-08-16T18:19:10.885Z,84.02
2022-08-16T18:21:57.028Z,85.56
2022-08-16T18:24:28.142Z,85.08
2022-08-16T18:26:55.905Z,84.58
2022-08-16T18:29:23.574Z,84.78
2022-08-16T18:31:54.181Z,85.90
2022-08-16T18:34:22.119Z,85.66
2022-08-16T18:36:51.169Z,85.05
2022-08-16T18:39:18.779Z,84.31
2022-08-16T18:41:49.386Z,83.38
2022-08-16T18:44:26.537Z,83.32
2022-08-16T18:46:55.720Z,84.88
2022-08-16T18:49:23.806Z,85.79
2022-08-16T18:51:55.968Z,86.14
2022-08-16T18:54:24.739Z,86.00
2022-08-16T18:56:57.516Z,85.91
2022-08-16T18:59:33.333Z,86.95
2022-08-16T19:02:05.238Z,86.90
2022-08-16T19:04:56.107Z,85.97
2022-08-16T19:07:30.766Z,85.14
2022-08-16T19:10:01.265Z,84.15
2022-08-16T19:12:37.930Z,84.24
2022-08-16T19:15:16.334Z,84.34
2022-08-16T19:17:46.326Z,84.60
2022-08-16T19:20:15.648Z,86.10
2022-08-16T19:25:47.439Z,87.25
2022-08-16T19:28:50.682Z,86.65
2022-08-16T19:31:16.927Z,87.52
2022-08-16T19:33:51.998Z,87.83
2022-08-16T19:36:30.546Z,88.29
2022-08-16T19:39:14.630Z,88.77
2022-08-16T19:41:44.500Z,88.46
2022-08-16T19:44:12.202Z,87.92
2022-08-16T19:46:43.682Z,87.56
2022-08-16T19:49:15.991Z,88.01
2022-08-16T19:51:47.711Z,89.39
2022-08-16T19:54:18.603Z,89.84
2022-08-16T19:56:46.564Z,90.75
2022-08-16T19:59:39.215Z,90.27
2022-08-16T20:02:02.741Z,89.76
2022-08-16T20:04:30.921Z,89.66
2022-08-16T20:06:58.753Z,90.68
2022-08-16T20:09:27.024Z,91.11
2022-08-16T20:11:55.078Z,91.02
2022-08-16T20:14:25.484Z,90.91
2022-08-16T20:16:55.391Z,91.37
2022-08-16T20:19:23.224Z,92.00
2022-08-16T20:21:51.212Z,92.85
2022-08-16T20:24:36.043Z,92.83
2022-08-16T20:27:06.269Z,94.50
2022-08-16T20:29:34.353Z,93.61
2022-08-16T20:32:04.186Z,93.16
2022-08-16T20:34:32.906Z,92.75
2022-08-16T20:37:00.537Z,93.29
2022-08-16T20:39:28.233Z,93.69
2022-08-16T20:41:55.835Z,93.20
2022-08-16T20:44:25.184Z,93.53
2022-08-16T20:46:53.517Z,93.30
2022-08-16T20:49:21.174Z,93.16
2022-08-16T20:51:50.850Z,93.06
2022-08-16T20:54:19.628Z,93.54
2022-08-16T20:56:47.252Z,94.91
2022-08-16T20:59:15.117Z,95.96
2022-08-16T21:01:46.893Z,95.18
2022-08-16T21:04:21.824Z,94.77
2022-08-16T21:06:54.099Z,95.61
2022-08-16T21:09:26.670Z,95.97
2022-08-16T21:11:55.164Z,95.69
2022-08-16T21:14:23.408Z,95.97
2022-08-16T21:16:51.079Z,95.39
2022-08-16T21:19:19.398Z,95.19
2022-08-16T21:21:47.101Z,95.84
2022-08-16T21:24:14.687Z,96.33
2022-08-16T21:26:53.927Z,96.56
2022-08-16T21:29:25.252Z,96.54
2022-08-16T21:32:10.750Z,96.75
2022-08-16T21:34:38.631Z,96.60
2022-08-16T21:37:06.591Z,95.92
2022-08-16T21:39:34.909Z,95.33
2022-08-16T21:42:02.617Z,95.51
2022-08-16T21:44:34.437Z,95.63
2022-08-16T21:47:06.926Z,96.76
2022-08-16T21:49:37.071Z,96.16
2022-08-16T21:52:05.834Z,96.79
2022-08-16T21:54:34.498Z,97.40
2022-08-16T21:57:02.238Z,97.01
2022-08-16T21:59:29.878Z,96.10
2022-08-16T22:01:57.656Z,96.27
2022-08-16T22:04:37.454Z,97.55
2022-08-16T22:07:06.587Z,97.58
2022-08-16T22:09:34.340Z,96.72
2022-08-16T22:12:01.990Z,97.20
2022-08-16T22:14:29.784Z,96.45
2022-08-16T22:16:57.379Z,96.18
2022-08-16T22:19:24.966Z,96.40
2022-08-16T22:21:52.610Z,96.85
2022-08-16T22:24:20.284Z,96.93
2022-08-16T22:26:48.015Z,97.50
2022-08-16T22:29:15.720Z,97.56
2022-08-16T22:31:44.049Z,97.10
2022-08-16T22:34:12.328Z,96.53
2022-08-16T22:36:40.027Z,96.26
2022-08-16T22:39:09.293Z,96.94
2022-08-16T22:41:37.385Z,97.25
2022-08-16T22:44:05.486Z,97.66
2022-08-16T22:46:35.001Z,97.70
2022-08-16T22:49:03.419Z,96.83
2022-08-16T22:51:31.402Z,95.80
2022-08-16T22:53:58.956Z,94.63
2022-08-16T22:56:27.524Z,94.38
2022-08-16T22:58:55.165Z,94.13
2022-08-16T23:01:24.125Z,94.16
2022-08-16T23:03:55.224Z,94.48
2022-08-16T23:06:23.471Z,94.93
2022-08-16T23:08:51.654Z,94.86
2022-08-16T23:11:22.725Z,94.71
2022-08-16T23:13:54.040Z,95.46
2022-08-16T23:16:22.911Z,96.64
2022-08-16T23:18:53.491Z,96.60
2022-08-16T23:21:21.401Z,96.15
2022-08-16T23:23:49.422Z,95.20
2022-08-16T23:26:44.353Z,95.28
2022-08-16T23:29:15.871Z,96.05
2022-08-16T23:31:54.355Z,95.29
2022-08-16T23:34:22.588Z,94.88
2022-08-16T23:36:50.335Z,95.01
2022-08-16T23:39:20.149Z,94.92
2022-08-16T23:41:48.278Z,94.90
2022-08-16T23:44:44.174Z,94.56
2022-08-16T23:47:06.404Z,95.14
2022-08-16T23:49:58.509Z,93.26
2022-08-16T23:52:54.739Z,91.43
2022-08-16T23:55:13.960Z,89.35
2022-08-16T23:57:48.749Z,88.48
